Time;durP1;ratioP1;P1;durP2;ratioP2;P2;SDS_P1;SDS_P2;PMS_P1;PMS_P2;Temp;Humidity;BMP_temperature;BMP_pressure;BME280_temperature;BME280_humidity;BME280_pressure;Samples;Min_cycle;Max_cycle;Signal;HPM_P1;HPM_P2
2021/11/16 00:00:43;;;;;;;32.80;19.80;;;6.80;1.00;;;;;;4990356;28;20482;-77
2021/11/16 00:03:10;;;;;;;33.83;20.13;;;6.90;1.00;;;;;;4991843;28;20224;-76
2021/11/16 00:05:37;;;;;;;31.83;20.17;;;6.90;1.00;;;;;;4994577;28;20439;-76
2021/11/16 00:08:03;;;;;;;33.80;20.13;;;6.80;1.00;;;;;;4975104;28;20455;-77
2021/11/16 00:10:29;;;;;;;34.47;21.23;;;6.80;1.00;;;;;;4992677;28;20446;-76
2021/11/16 00:12:57;;;;;;;32.07;19.40;;;6.80;1.00;;;;;;4989294;28;20458;-77
2021/11/16 00:15:22;;;;;;;33.07;19.43;;;6.90;1.00;;;;;;4992055;28;20670;-76
2021/11/16 00:17:48;;;;;;;34.73;20.07;;;6.90;1.00;;;;;;4992209;28;20542;-77
2021/11/16 00:20:15;;;;;;;37.17;20.97;;;6.90;1.00;;;;;;4987475;28;20259;-76
2021/11/16 00:22:43;;;;;;;32.23;19.43;;;6.80;1.00;;;;;;4991762;28;20204;-76
2021/11/16 00:27:41;;;;;;;37.13;20.27;;;6.80;1.00;;;;;;4991113;28;20466;-77
2021/11/16 00:30:07;;;;;;;32.03;19.80;;;6.80;1.00;;;;;;4998196;28;20817;-77
2021/11/16 00:32:34;;;;;;;36.30;21.10;;;6.80;1.00;;;;;;4991068;28;20900;-77
2021/11/16 00:35:01;;;;;;;31.03;20.10;;;6.80;1.00;;;;;;4994604;28;20487;-76
2021/11/16 00:37:27;;;;;;;30.70;19.37;;;6.80;1.00;;;;;;4991727;28;20845;-76
2021/11/16 00:39:58;;;;;;;36.57;21.00;;;6.90;1.00;;;;;;4990164;28;20451;-76
2021/11/16 00:42:24;;;;;;;30.37;19.57;;;6.90;1.00;;;;;;4986634;28;20451;-77
2021/11/16 00:44:51;;;;;;;32.07;19.43;;;6.90;1.00;;;;;;4991689;28;20471;-77
2021/11/16 00:47:16;;;;;;;31.00;18.63;;;6.90;1.00;;;;;;4991020;28;20871;-76
2021/11/16 00:49:42;;;;;;;34.50;21.23;;;6.80;1.00;;;;;;4990660;28;20443;-77
2021/11/16 00:52:09;;;;;;;33.67;20.60;;;6.80;1.00;;;;;;4984137;28;20205;-77
2021/11/16 00:54:35;;;;;;;35.13;20.70;;;6.90;1.00;;;;;;4994983;28;20458;-77
2021/11/16 00:57:01;;;;;;;36.63;21.67;;;6.80;1.00;;;;;;4991321;28;21675;-77
2021/11/16 00:59:26;;;;;;;31.63;19.03;;;6.80;1.00;;;;;;4991079;28;20180;-77
2021/11/16 01:01:52;;;;;;;30.30;18.73;;;6.90;1.00;;;;;;4989500;28;24074;-77
2021/11/16 01:04:18;;;;;;;30.37;18.40;;;6.90;1.00;;;;;;4969701;28;20359;-76
2021/11/16 01:06:44;;;;;;;34.93;21.90;;;6.80;1.00;;;;;;4986125;28;20322;-77
2021/11/16 01:09:11;;;;;;;30.20;19.10;;;6.80;1.00;;;;;;4971603;28;20268;-77
2021/11/16 01:11:37;;;;;;;32.90;20.13;;;6.70;1.00;;;;;;4992766;28;20455;-77
2021/11/16 01:14:04;;;;;;;38.33;20.27;;;6.70;1.00;;;;;;4989488;28;21156;-77
2021/11/16 01:16:30;;;;;;;33.10;19.53;;;6.80;1.00;;;;;;4991471;28;20447;-77
2021/11/16 01:18:56;;;;;;;32.10;18.90;;;6.80;1.00;;;;;;4991979;28;20860;-77
2021/11/16 01:21:22;;;;;;;32.10;18.80;;;6.80;1.00;;;;;;4985644;28;20470;-77
2021/11/16 01:23:48;;;;;;;35.10;20.83;;;6.80;1.00;;;;;;4992862;28;20483;-77
2021/11/16 01:26:14;;;;;;;35.83;21.10;;;6.80;1.00;;;;;;4993505;28;20454;-76
2021/11/16 01:28:40;;;;;;;32.43;20.27;;;6.80;1.00;;;;;;4988031;28;20200;-76
2021/11/16 01:31:07;;;;;;;32.63;18.40;;;6.80;1.00;;;;;;4988186;28;20509;-76
2021/11/16 01:33:53;;;;;;;29.57;18.37;;;6.60;1.00;;;;;;4992190;28;20204;-76
2021/11/16 01:36:19;;;;;;;31.93;19.70;;;6.50;1.00;;;;;;4991063;28;20455;-77
2021/11/16 01:38:46;;;;;;;34.93;19.27;;;6.50;1.00;;;;;;4989424;28;20521;-76
2021/11/16 01:41:12;;;;;;;32.97;19.90;;;6.50;1.00;;;;;;4989850;28;21022;-77
2021/11/16 01:43:39;;;;;;;35.20;19.40;;;6.50;1.00;;;;;;4991068;28;20517;-77
2021/11/16 01:46:12;;;;;;;32.00;19.10;;;6.60;1.00;;;;;;4994992;28;20454;-77
2021/11/16 01:48:39;;;;;;;33.17;19.33;;;6.70;1.00;;;;;;4997192;28;20751;-77
2021/11/16 01:51:05;;;;;;;34.20;18.90;;;6.70;1.00;;;;;;4996257;28;20859;-77
2021/11/16 01:53:31;;;;;;;35.23;19.30;;;6.70;1.00;;;;;;4995299;28;20471;-76
2021/11/16 01:55:57;;;;;;;31.90;20.37;;;6.70;1.00;;;;;;4993072;28;20451;-77
2021/11/16 01:58:24;;;;;;;35.17;18.97;;;6.70;1.00;;;;;;4990702;28;20455;-76
2021/11/16 02:00:50;;;;;;;36.27;21.07;;;6.70;1.00;;;;;;4992034;28;20453;-76
2021/11/16 02:03:16;;;;;;;33.20;19.10;;;6.70;1.00;;;;;;4991184;28;21361;-77
2021/11/16 02:05:47;;;;;;;37.83;21.03;;;6.70;1.00;;;;;;4976446;28;20432;-76
2021/11/16 02:08:14;;;;;;;35.30;20.03;;;6.70;1.00;;;;;;4996079;28;20459;-76
2021/11/16 02:10:43;;;;;;;36.10;20.20;;;6.70;1.00;;;;;;4988441;28;20525;-77
2021/11/16 02:16:57;;;;;;;31.60;18.43;;;6.80;1.00;;;;;;4968855;28;20487;-77
2021/11/16 02:19:22;;;;;;;31.57;18.97;;;6.80;1.00;;;;;;4994201;28;20479;-76
2021/11/16 02:21:49;;;;;;;31.50;19.57;;;6.80;1.00;;;;;;4994538;28;21222;-77
2021/11/16 02:24:15;;;;;;;28.10;18.10;;;6.80;1.00;;;;;;4992927;28;20200;-77
2021/11/16 02:26:41;;;;;;;31.70;17.00;;;6.60;1.00;;;;;;4986432;28;20944;-76
2021/11/16 02:29:08;;;;;;;28.70;17.83;;;6.50;1.00;;;;;;4985143;28;20467;-77
2021/11/16 02:31:34;;;;;;;28.03;18.83;;;6.50;1.00;;;;;;4985247;28;20475;-77
2021/11/16 02:34:02;;;;;;;32.03;19.37;;;6.30;1.00;;;;;;4994805;28;20439;-76
2021/11/16 02:36:30;;;;;;;32.67;20.53;;;6.40;1.00;;;;;;4981951;28;20462;-76
2021/11/16 02:38:57;;;;;;;33.00;18.63;;;6.30;1.00;;;;;;4989012;28;20490;-77
2021/11/16 02:41:29;;;;;;;30.63;19.60;;;6.30;1.00;;;;;;4989508;28;21025;-76
2021/11/16 02:43:57;;;;;;;30.67;19.50;;;6.40;1.00;;;;;;4986228;28;20554;-76
2021/11/16 02:46:23;;;;;;;34.17;20.63;;;6.30;1.00;;;;;;4981229;28;20439;-76
2021/11/16 02:48:49;;;;;;;34.83;21.30;;;6.40;1.00;;;;;;4988381;28;20439;-77
2021/11/16 02:51:14;;;;;;;32.90;19.17;;;6.50;1.00;;;;;;4986201;28;20243;-77
2021/11/16 02:53:42;;;;;;;34.00;20.90;;;6.50;1.00;;;;;;4986905;28;20211;-76
2021/11/16 02:56:08;;;;;;;33.93;19.00;;;6.60;1.00;;;;;;4990323;28;20243;-77
2021/11/16 02:58:35;;;;;;;35.23;20.43;;;6.60;1.00;;;;;;4989759;28;20812;-76
2021/11/16 03:01:06;;;;;;;30.50;19.47;;;6.70;1.00;;;;;;4987004;28;20444;-77
2021/11/16 03:03:32;;;;;;;31.60;19.30;;;6.70;1.00;;;;;;4993666;28;20471;-77
2021/11/16 03:05:58;;;;;;;32.63;20.27;;;6.60;1.00;;;;;;4992435;28;20455;-76
2021/11/16 03:08:28;;;;;;;32.77;21.07;;;6.70;1.00;;;;;;4994440;28;20447;-76
2021/11/16 03:11:00;;;;;;;33.80;19.40;;;6.80;1.00;;;;;;4996180;28;20625;-76
2021/11/16 03:13:29;;;;;;;31.43;18.57;;;6.70;1.00;;;;;;4998197;28;20515;-77
2021/11/16 03:15:55;;;;;;;31.73;18.90;;;6.70;1.00;;;;;;4995535;28;21575;-77
2021/11/16 03:18:21;;;;;;;33.93;19.90;;;6.70;1.00;;;;;;4991750;28;20439;-76
2021/11/16 03:20:48;;;;;;;32.20;18.40;;;6.80;1.00;;;;;;4989664;28;20471;-76
2021/11/16 03:23:18;;;;;;;25.97;17.43;;;6.80;1.00;;;;;;4994846;28;20499;-76
2021/11/16 03:25:59;;;;;;;33.93;20.40;;;6.80;1.00;;;;;;4988999;28;20447;-76
2021/11/16 03:28:28;;;;;;;34.10;20.53;;;6.70;1.00;;;;;;4993908;28;20466;-76
2021/11/16 03:30:56;;;;;;;30.40;20.07;;;6.80;1.00;;;;;;4989628;28;20936;-77
2021/11/16 03:33:24;;;;;;;31.97;18.63;;;6.80;1.00;;;;;;4990147;28;20451;-77
2021/11/16 03:35:50;;;;;;;31.20;18.17;;;6.70;1.00;;;;;;4991327;28;20462;-76
2021/11/16 03:38:18;;;;;;;32.90;19.90;;;6.70;1.00;;;;;;4991445;28;20463;-76
2021/11/16 03:40:47;;;;;;;33.07;19.53;;;6.70;1.00;;;;;;4991169;28;20530;-77
2021/11/16 03:43:13;;;;;;;30.93;18.33;;;6.60;1.00;;;;;;4988893;28;20474;-77
2021/11/16 03:45:40;;;;;;;32.33;19.67;;;6.60;1.00;;;;;;4983947;28;20455;-76
2021/11/16 03:48:07;;;;;;;32.50;20.80;;;6.60;1.00;;;;;;4993763;28;20479;-77
2021/11/16 03:50:34;;;;;;;36.20;21.17;;;6.40;1.00;;;;;;4995522;28;20447;-77
2021/11/16 03:53:02;;;;;;;30.37;18.93;;;6.50;1.00;;;;;;4987817;28;20543;-77
2021/11/16 03:55:35;;;;;;;36.47;19.40;;;6.40;1.00;;;;;;4990087;28;20455;-76
2021/11/16 03:58:03;;;;;;;34.03;20.10;;;6.50;1.00;;;;;;4989794;28;20448;-76
2021/11/16 04:00:35;;;;;;;29.27;19.27;;;6.40;4.60;;;;;;4983316;28;20447;-77
2021/11/16 04:03:02;;;;;;;27.80;19.17;;;6.40;9.30;;;;;;4985812;28;21134;-77
2021/11/16 04:05:28;;;;;;;29.47;18.87;;;6.40;6.10;;;;;;4987045;28;20450;-76
2021/11/16 04:07:54;;;;;;;31.80;19.80;;;6.40;15.30;;;;;;4990578;28;21157;-77
2021/11/16 04:10:22;;;;;;;32.80;20.20;;;6.40;24.20;;;;;;4994178;28;23957;-76
2021/11/16 04:12:49;;;;;;;30.70;19.90;;;6.40;6.00;;;;;;4991129;28;20551;-76
2021/11/16 04:15:17;;;;;;;32.77;18.17;;;6.50;1.00;;;;;;4985997;28;20651;-76
2021/11/16 04:17:44;;;;;;;31.67;18.97;;;6.50;1.00;;;;;;4992445;28;20470;-76
2021/11/16 04:20:22;;;;;;;26.37;17.30;;;6.40;1.00;;;;;;4993535;28;20481;-77
2021/11/16 04:22:47;;;;;;;31.50;20.30;;;6.40;1.00;;;;;;4990804;28;20464;-76
2021/11/16 04:25:14;;;;;;;35.03;19.37;;;6.40;1.00;;;;;;4988714;28;21014;-77
2021/11/16 04:27:41;;;;;;;33.83;19.83;;;6.40;1.00;;;;;;4980687;28;20271;-76
2021/11/16 04:30:08;;;;;;;35.30;19.40;;;6.40;1.00;;;;;;4977793;28;20798;-77
2021/11/16 04:32:34;;;;;;;32.90;20.03;;;6.40;1.00;;;;;;4985743;28;20501;-76
2021/11/16 04:34:59;;;;;;;30.90;18.53;;;6.50;1.00;;;;;;4993305;28;20451;-77
2021/11/16 04:37:25;;;;;;;26.93;19.33;;;6.50;1.00;;;;;;4991772;28;20239;-77
2021/11/16 04:39:51;;;;;;;24.80;15.83;;;6.40;1.00;;;;;;4987885;28;20193;-76
2021/11/16 04:42:17;;;;;;;28.13;17.93;;;6.40;1.00;;;;;;4977223;28;20506;-76
2021/11/16 04:44:44;;;;;;;28.50;16.93;;;6.40;1.00;;;;;;4988397;28;21676;-77
2021/11/16 04:47:11;;;;;;;28.63;17.20;;;6.40;1.00;;;;;;4994674;28;20215;-76
2021/11/16 04:49:41;;;;;;;28.63;16.47;;;6.40;1.00;;;;;;4993929;28;20446;-77
2021/11/16 04:52:18;;;;;;;24.07;15.00;;;6.40;1.00;;;;;;4993677;28;21055;-76
2021/11/16 05:02:34;;;;;;;26.30;16.30;;;6.30;1.00;;;;;;4936295;28;20528;-76
2021/11/16 05:03:09;;;;;;;25.43;16.10;;;6.30;1.00;;;;;;4995955;28;20900;-77
2021/11/16 05:05:35;;;;;;;23.47;15.43;;;6.40;1.00;;;;;;4990082;28;20497;-76
2021/11/16 05:08:01;;;;;;;27.60;15.33;;;6.40;1.00;;;;;;4998202;28;20546;-77
2021/11/16 05:10:28;;;;;;;24.33;15.03;;;6.50;1.00;;;;;;4994604;28;20735;-76
2021/11/16 05:12:59;;;;;;;25.70;14.90;;;6.40;1.00;;;;;;4993089;28;20449;-76
2021/11/16 05:15:25;;;;;;;27.60;14.90;;;6.30;1.00;;;;;;4995830;28;20435;-77
2021/11/16 05:17:53;;;;;;;25.50;15.83;;;6.40;1.00;;;;;;4988688;28;20501;-77
2021/11/16 05:20:19;;;;;;;24.87;14.87;;;6.40;1.00;;;;;;4995629;28;20439;-77
2021/11/16 05:22:49;;;;;;;22.83;14.63;;;6.40;1.00;;;;;;4994094;28;20477;-77
2021/11/16 05:25:15;;;;;;;22.13;14.73;;;6.30;1.00;;;;;;4995439;28;20455;-76
2021/11/16 05:27:41;;;;;;;21.80;13.07;;;6.40;1.00;;;;;;5000999;28;20509;-77
2021/11/16 05:30:10;;;;;;;24.30;13.60;;;6.50;1.00;;;;;;4991091;28;20852;-77
2021/11/16 05:32:36;;;;;;;22.10;13.70;;;6.50;1.00;;;;;;4998826;28;20198;-76
2021/11/16 05:35:03;;;;;;;19.80;13.10;;;6.50;1.00;;;;;;4992257;28;20458;-77
2021/11/16 05:37:29;;;;;;;26.33;14.50;;;6.50;1.00;;;;;;5003058;28;20443;-77
2021/11/16 05:39:55;;;;;;;23.13;14.17;;;6.60;1.00;;;;;;4990106;28;21369;-77
2021/11/16 05:42:23;;;;;;;21.17;13.50;;;6.60;1.00;;;;;;4993902;28;20193;-76
2021/11/16 05:44:50;;;;;;;24.27;14.30;;;6.50;1.00;;;;;;4998005;28;20213;-76
2021/11/16 05:47:16;;;;;;;22.83;14.17;;;6.50;1.00;;;;;;4996230;28;20451;-76
2021/11/16 05:49:42;;;;;;;23.23;14.67;;;6.60;1.00;;;;;;4993826;28;20780;-77
2021/11/16 05:52:08;;;;;;;25.00;14.67;;;6.60;1.00;;;;;;4989342;28;20632;-76
2021/11/16 05:54:34;;;;;;;23.63;14.07;;;6.50;1.00;;;;;;4993594;28;20543;-77
2021/11/16 05:57:01;;;;;;;29.20;14.07;;;6.40;1.00;;;;;;4993528;28;20220;-77
2021/11/16 05:59:33;;;;;;;27.30;14.80;;;6.50;1.00;;;;;;4995251;28;20443;-76
2021/11/16 06:02:10;;;;;;;24.87;15.00;;;6.40;1.00;;;;;;4996489;28;20454;-76
2021/11/16 06:04:37;;;;;;;29.60;15.20;;;6.50;1.00;;;;;;4981310;28;20479;-76
2021/11/16 06:07:05;;;;;;;23.70;15.50;;;6.50;1.00;;;;;;4992676;28;20439;-77
2021/11/16 06:09:31;;;;;;;22.20;14.40;;;6.50;1.00;;;;;;4965848;28;20458;-76
2021/11/16 06:12:02;;;;;;;27.70;15.03;;;6.60;1.00;;;;;;4990455;28;20447;-77
2021/11/16 06:14:28;;;;;;;27.50;14.27;;;6.60;1.00;;;;;;4993791;28;20462;-76
2021/11/16 06:16:54;;;;;;;23.00;14.70;;;6.60;1.00;;;;;;4993924;28;20466;-76
2021/11/16 06:19:24;;;;;;;22.23;14.80;;;6.60;1.00;;;;;;4995024;28;20459;-76
2021/11/16 06:21:50;;;;;;;27.83;16.60;;;6.60;1.00;;;;;;4996473;28;20509;-76
2021/11/16 06:24:16;;;;;;;29.70;16.57;;;6.50;1.00;;;;;;4990066;28;20544;-76
2021/11/16 06:26:41;;;;;;;30.70;16.17;;;6.40;1.00;;;;;;4991636;28;20448;-76
2021/11/16 06:29:07;;;;;;;27.57;15.30;;;6.40;1.00;;;;;;4977054;28;20613;-75
2021/11/16 06:31:35;;;;;;;27.23;15.50;;;6.50;1.00;;;;;;4992102;28;20188;-76
2021/11/16 06:34:03;;;;;;;32.20;15.90;;;6.40;1.00;;;;;;4992568;28;20747;-76
2021/11/16 06:36:41;;;;;;;25.73;15.33;;;6.40;1.00;;;;;;5000598;28;20945;-76
2021/11/16 06:39:12;;;;;;;24.40;15.40;;;6.50;1.00;;;;;;4997854;28;20812;-76
2021/11/16 06:41:39;;;;;;;25.70;16.13;;;6.50;1.00;;;;;;5001188;28;20455;-76
2021/11/16 06:44:06;;;;;;;28.33;15.87;;;6.50;1.00;;;;;;4997108;28;20479;-76
2021/11/16 06:46:33;;;;;;;26.53;14.33;;;6.50;5.10;;;;;;4994979;28;20501;-76
2021/11/16 06:49:00;;;;;;;27.47;15.77;;;6.40;9.40;;;;;;4999102;28;20526;-76
2021/11/16 06:51:26;;;;;;;31.93;14.80;;;6.40;2.40;;;;;;5001773;28;20588;-76
2021/11/16 06:53:52;;;;;;;25.80;15.60;;;6.50;8.00;;;;;;5000934;28;20528;-76
2021/11/16 06:56:25;;;;;;;28.43;17.80;;;6.30;12.60;;;;;;5003343;28;21053;-76
2021/11/16 06:58:51;;;;;;;29.17;17.33;;;6.30;21.80;;;;;;4995039;28;20804;-76
2021/11/16 07:01:17;;;;;;;29.33;17.00;;;6.40;31.80;;;;;;5001313;28;20951;-76
2021/11/16 07:03:48;;;;;;;25.83;17.20;;;6.30;47.80;;;;;;4994626;28;20568;-76
2021/11/16 07:06:14;;;;;;;30.07;15.70;;;6.30;47.90;;;;;;4997614;28;20455;-76
2021/11/16 07:08:42;;;;;;;26.90;15.40;;;6.30;30.60;;;;;;4999384;28;20463;-76
2021/11/16 07:11:12;;;;;;;35.37;18.83;;;6.40;30.00;;;;;;5003254;28;20264;-77
2021/11/16 07:13:59;;;;;;;32.43;16.70;;;6.40;24.80;;;;;;4993160;28;20455;-76
2021/11/16 07:16:28;;;;;;;33.63;17.80;;;6.40;40.60;;;;;;4996961;28;20487;-76
2021/11/16 07:18:56;;;;;;;29.40;17.23;;;6.40;49.00;;;;;;4993639;28;20975;-76
2021/11/16 07:21:24;;;;;;;30.53;16.43;;;6.40;41.00;;;;;;4996536;28;20522;-76
2021/11/16 07:24:09;;;;;;;30.53;18.10;;;6.20;38.90;;;;;;4987413;28;20574;-76
2021/11/16 07:26:39;;;;;;;37.20;17.73;;;6.20;91.60;;;;;;4988085;28;20447;-76
2021/11/16 07:29:08;;;;;;;33.43;16.90;;;6.30;98.30;;;;;;4991664;28;20495;-76
2021/11/16 07:31:41;;;;;;;34.90;18.20;;;6.30;99.90;;;;;;4968344;28;20450;-76
2021/11/16 07:34:20;;;;;;;36.30;18.60;;;6.40;99.90;;;;;;4983359;28;20459;-76
2021/11/16 07:37:10;;;;;;;30.50;16.80;;;6.40;77.80;;;;;;4989009;28;20443;-75
2021/11/16 07:39:49;;;;;;;28.80;16.60;;;6.20;86.30;;;;;;4991525;28;20864;-76
2021/11/16 07:42:16;;;;;;;31.10;17.20;;;6.20;99.90;;;;;;4994394;28;20440;-75
2021/11/16 07:45:04;;;;;;;29.40;17.20;;;6.30;99.90;;;;;;4980686;28;20463;-77
2021/11/16 07:48:03;;;;;;;42.10;20.03;;;6.30;99.90;;;;;;4992050;28;20463;-77
2021/11/16 07:50:31;;;;;;;34.10;17.30;;;6.50;99.90;;;;;;4989967;28;20474;-77
2021/11/16 07:53:24;;;;;;;29.97;17.83;;;6.40;89.00;;;;;;4989688;28;20906;-77
2021/11/16 07:55:52;;;;;;;28.00;16.20;;;6.40;99.90;;;;;;4996179;28;20463;-76
2021/11/16 07:58:20;;;;;;;34.93;18.33;;;6.30;99.90;;;;;;4995607;28;20452;-76
2021/11/16 08:00:48;;;;;;;32.70;17.30;;;6.30;99.90;;;;;;4979745;28;20879;-77
2021/11/16 08:03:18;;;;;;;34.80;17.53;;;6.30;99.90;;;;;;4982621;28;20534;-77
2021/11/16 08:05:59;;;;;;;28.50;16.57;;;6.30;99.90;;;;;;4980845;28;20476;-76
2021/11/16 08:11:18;;;;;;;34.50;18.80;;;6.10;99.90;;;;;;4984959;28;20468;-77
2021/11/16 08:13:59;;;;;;;37.23;19.20;;;6.20;99.90;;;;;;4982385;28;20615;-77
2021/11/16 08:16:28;;;;;;;34.53;20.07;;;6.30;99.90;;;;;;4981880;28;20443;-77
2021/11/16 08:19:04;;;;;;;35.30;18.67;;;6.40;99.90;;;;;;4984045;28;20455;-77
2021/11/16 08:21:30;;;;;;;37.77;19.43;;;6.30;99.90;;;;;;4983368;28;20487;-77
2021/11/16 08:24:07;;;;;;;34.23;18.27;;;6.30;99.90;;;;;;4983736;28;20868;-77
2021/11/16 08:26:41;;;;;;;37.60;19.57;;;6.50;99.90;;;;;;4986143;28;20944;-77
2021/11/16 08:29:09;;;;;;;34.13;19.27;;;6.20;99.90;;;;;;4982413;28;20457;-77
2021/11/16 08:31:42;;;;;;;34.33;19.70;;;6.20;99.90;;;;;;4985688;28;20534;-77
2021/11/16 08:34:09;;;;;;;38.70;19.90;;;6.10;99.90;;;;;;4982354;28;20458;-77
2021/11/16 08:36:47;;;;;;;35.10;17.40;;;6.20;99.90;;;;;;4982667;28;20466;-76
2021/11/16 08:39:15;;;;;;;35.23;19.63;;;6.30;99.90;;;;;;4982295;28;20455;-76
2021/11/16 08:41:41;;;;;;;37.23;19.53;;;6.30;99.90;;;;;;4983028;28;20538;-77
2021/11/16 08:44:09;;;;;;;41.03;20.70;;;6.20;99.90;;;;;;4983365;28;20566;-76
2021/11/16 08:46:36;;;;;;;40.57;21.67;;;6.20;99.90;;;;;;4979472;28;20436;-76
2021/11/16 08:49:02;;;;;;;40.30;20.30;;;6.20;99.90;;;;;;4982743;28;20451;-76
2021/11/16 08:51:41;;;;;;;42.40;21.07;;;6.20;99.90;;;;;;4984519;28;20486;-77
2021/11/16 08:54:08;;;;;;;35.77;19.03;;;6.40;99.90;;;;;;4991656;28;20462;-77
2021/11/16 08:56:38;;;;;;;31.93;18.23;;;6.40;99.90;;;;;;4996433;28;20454;-77
2021/11/16 08:59:16;;;;;;;34.90;18.30;;;6.40;99.90;;;;;;4993954;28;20494;-77
2021/11/16 09:01:58;;;;;;;32.73;17.47;;;6.30;99.90;;;;;;4997841;28;20960;-77
2021/11/16 09:04:26;;;;;;;37.20;19.20;;;6.20;99.90;;;;;;4987467;28;20514;-77
2021/11/16 09:06:53;;;;;;;35.80;19.60;;;6.30;99.90;;;;;;4983314;28;20469;-77
2021/11/16 09:09:19;;;;;;;33.57;18.77;;;6.30;99.90;;;;;;4987986;28;20469;-77
2021/11/16 09:12:00;;;;;;;37.03;19.10;;;6.30;99.90;;;;;;4985803;28;20463;-77
2021/11/16 09:14:28;;;;;;;37.30;20.20;;;6.30;99.90;;;;;;4985093;28;20480;-77
2021/11/16 09:16:54;;;;;;;40.17;20.47;;;6.40;99.90;;;;;;4983149;28;20786;-77
2021/11/16 09:19:38;;;;;;;33.60;20.30;;;6.40;99.90;;;;;;4988681;28;20443;-77
2021/11/16 09:22:04;;;;;;;34.00;19.87;;;6.50;99.90;;;;;;4988116;28;20493;-77
2021/11/16 09:24:36;;;;;;;35.53;18.50;;;6.50;99.90;;;;;;4987672;28;20562;-77
2021/11/16 09:29:32;;;;;;;36.10;19.70;;;6.30;99.90;;;;;;4972420;28;20490;-77
2021/11/16 09:32:10;;;;;;;34.30;18.83;;;6.30;99.90;;;;;;4988929;28;20440;-77
2021/11/16 09:34:40;;;;;;;31.63;19.20;;;6.30;99.90;;;;;;4988384;28;20504;-77
2021/11/16 09:37:15;;;;;;;33.27;18.43;;;6.50;99.90;;;;;;4987629;28;20447;-76
2021/11/16 09:39:51;;;;;;;34.40;18.50;;;6.50;99.90;;;;;;4978572;28;21093;-77
2021/11/16 09:42:37;;;;;;;31.60;18.60;;;6.50;99.90;;;;;;4965480;28;20566;-77
2021/11/16 09:45:09;;;;;;;31.83;19.00;;;6.40;99.90;;;;;;4979730;28;20566;-77
2021/11/16 09:47:38;;;;;;;36.17;17.40;;;6.40;99.90;;;;;;4989725;28;21351;-76
2021/11/16 09:50:06;;;;;;;34.33;16.97;;;6.30;99.90;;;;;;4986759;28;25328;-76
2021/11/16 09:52:41;;;;;;;33.17;18.43;;;6.40;99.90;;;;;;4980294;28;21005;-77
2021/11/16 09:55:12;;;;;;;33.67;17.83;;;6.40;99.90;;;;;;4985062;28;20489;-77
2021/11/16 09:57:50;;;;;;;32.63;16.93;;;6.50;99.90;;;;;;4989169;28;20451;-77
2021/11/16 10:00:24;;;;;;;31.27;18.20;;;6.50;99.90;;;;;;4983607;28;20554;-77
2021/11/16 10:03:07;;;;;;;32.20;18.77;;;6.50;99.90;;;;;;4983484;28;20451;-77
2021/11/16 10:05:42;;;;;;;31.80;18.90;;;6.50;99.90;;;;;;4967087;28;20937;-76
2021/11/16 10:08:10;;;;;;;36.10;17.90;;;6.50;99.90;;;;;;4988989;28;20451;-77
2021/11/16 10:10:39;;;;;;;30.27;17.73;;;6.50;99.90;;;;;;4987575;28;20447;-75
2021/11/16 10:13:08;;;;;;;31.47;17.03;;;6.50;99.90;;;;;;4986851;28;20463;-77
2021/11/16 10:15:37;;;;;;;35.93;17.70;;;6.50;99.90;;;;;;4983410;28;20459;-77
2021/11/16 10:18:04;;;;;;;32.43;18.27;;;6.50;99.90;;;;;;4987109;28;20473;-76
2021/11/16 10:20:36;;;;;;;32.53;16.77;;;6.50;99.90;;;;;;4991802;28;20468;-77
2021/11/16 10:23:07;;;;;;;26.40;15.43;;;6.60;99.90;;;;;;4988528;28;20451;-76
2021/11/16 10:25:34;;;;;;;26.50;16.00;;;6.50;99.90;;;;;;4985869;28;20580;-77
2021/11/16 10:28:10;;;;;;;28.60;16.27;;;6.50;99.90;;;;;;4982721;28;21031;-77
2021/11/16 10:30:37;;;;;;;25.83;14.73;;;6.60;99.90;;;;;;4983677;28;20456;-77
2021/11/16 10:33:09;;;;;;;27.70;14.80;;;6.60;99.70;;;;;;4984416;28;20542;-76
2021/11/16 10:35:49;;;;;;;27.00;15.90;;;6.60;70.80;;;;;;4989455;28;20440;-77
2021/11/16 10:38:18;;;;;;;24.70;14.80;;;6.50;66.00;;;;;;4983688;28;20459;-77
2021/11/16 10:40:44;;;;;;;32.73;15.97;;;6.60;53.70;;;;;;4985041;28;20924;-77
2021/11/16 10:43:11;;;;;;;27.30;15.50;;;6.60;59.90;;;;;;4987293;28;20451;-77
2021/11/16 10:45:43;;;;;;;26.50;14.77;;;6.50;74.20;;;;;;4985630;28;20502;-77
2021/11/16 10:48:12;;;;;;;21.97;13.20;;;6.50;99.90;;;;;;4988168;28;20534;-77
2021/11/16 10:50:41;;;;;;;21.63;12.30;;;6.60;99.90;;;;;;4991740;28;20470;-77
2021/11/16 10:53:10;;;;;;;20.70;12.83;;;6.60;96.50;;;;;;4995577;28;20447;-77
2021/11/16 10:55:44;;;;;;;24.50;13.27;;;6.70;83.90;;;;;;4994940;28;21000;-76
2021/11/16 10:58:26;;;;;;;24.63;13.23;;;6.70;73.50;;;;;;4995959;28;20450;-76
2021/11/16 11:01:04;;;;;;;21.73;11.37;;;6.60;72.10;;;;;;4996449;28;21620;-76
2021/11/16 11:03:40;;;;;;;18.57;11.80;;;6.50;82.90;;;;;;4989704;28;20468;-76
2021/11/16 11:06:07;;;;;;;18.70;11.20;;;6.50;75.70;;;;;;4976768;28;20478;-77
2021/11/16 11:08:44;;;;;;;21.07;11.27;;;6.50;49.00;;;;;;4982628;28;20562;-77
2021/11/16 11:11:26;;;;;;;20.57;11.63;;;6.50;56.60;;;;;;4985356;28;20960;-77
2021/11/16 11:14:16;;;;;;;17.10;10.00;;;6.50;56.30;;;;;;4987696;28;20466;-76
2021/11/16 11:16:54;;;;;;;19.23;11.70;;;6.50;63.10;;;;;;4982894;28;20455;-76
2021/11/16 11:19:27;;;;;;;17.90;9.77;;;6.60;43.80;;;;;;4987991;28;20558;-77
2021/11/16 11:22:06;;;;;;;15.30;9.00;;;6.70;63.90;;;;;;4987289;28;21028;-77
2021/11/16 11:24:39;;;;;;;18.17;9.30;;;6.80;60.60;;;;;;4980106;28;20479;-76
2021/11/16 11:29:56;;;;;;;18.07;10.53;;;6.60;48.70;;;;;;4960981;28;21011;-76
2021/11/16 11:32:28;;;;;;;17.80;9.07;;;6.60;48.20;;;;;;4990873;28;20810;-76
2021/11/16 11:34:59;;;;;;;17.10;9.13;;;6.70;36.10;;;;;;4990626;28;20463;-77
2021/11/16 11:37:28;;;;;;;17.47;9.50;;;6.80;21.00;;;;;;4989115;28;20811;-77
2021/11/16 11:39:59;;;;;;;16.37;9.73;;;6.90;24.10;;;;;;4986253;28;20922;-77
2021/11/16 11:42:26;;;;;;;19.97;9.93;;;6.80;17.60;;;;;;4984080;28;20467;-77
2021/11/16 11:45:08;;;;;;;16.83;9.37;;;6.90;19.90;;;;;;4985011;28;20478;-77
2021/11/16 11:47:35;;;;;;;20.33;10.33;;;6.90;16.70;;;;;;4981748;28;20954;-76
2021/11/16 11:50:17;;;;;;;13.93;8.57;;;6.90;26.00;;;;;;4986154;28;20470;-77
2021/11/16 11:52:46;;;;;;;16.83;9.17;;;6.90;25.40;;;;;;4966215;28;20490;-76
2021/11/16 11:55:12;;;;;;;17.90;11.20;;;6.90;24.30;;;;;;4986133;28;20463;-77
2021/11/16 11:57:39;;;;;;;17.23;8.90;;;6.80;22.10;;;;;;4989275;28;20513;-77
2021/11/16 12:00:07;;;;;;;12.10;8.27;;;6.80;16.10;;;;;;4990929;28;20200;-76
2021/11/16 12:02:35;;;;;;;15.90;8.80;;;6.80;22.30;;;;;;4990074;28;20435;-76
2021/11/16 12:05:01;;;;;;;16.73;9.30;;;6.70;21.10;;;;;;4986701;28;20585;-77
2021/11/16 12:07:29;;;;;;;15.97;9.27;;;6.80;24.50;;;;;;4972783;28;21098;-77
2021/11/16 12:09:55;;;;;;;19.50;10.30;;;6.80;27.90;;;;;;4990647;28;20459;-77
2021/11/16 12:12:22;;;;;;;16.90;9.80;;;6.90;27.20;;;;;;4989812;28;20439;-77
2021/11/16 12:15:13;;;;;;;18.67;9.53;;;7.00;18.80;;;;;;4990713;28;20447;-77
2021/11/16 12:17:53;;;;;;;17.80;9.70;;;6.90;22.40;;;;;;4991610;28;20810;-77
2021/11/16 12:20:53;;;;;;;14.53;9.50;;;6.70;17.20;;;;;;4986505;28;20482;-76
2021/11/16 12:23:41;;;;;;;18.03;11.27;;;6.60;20.40;;;;;;4992814;28;21058;-76
2021/11/16 12:26:10;;;;;;;18.70;10.10;;;6.60;30.70;;;;;;4988482;28;20475;-77
2021/11/16 12:28:37;;;;;;;14.97;9.17;;;6.70;34.30;;;;;;4986801;28;21032;-76
2021/11/16 12:31:04;;;;;;;15.83;9.17;;;6.80;36.20;;;;;;4986838;28;20460;-77
2021/11/16 12:33:46;;;;;;;17.50;10.40;;;6.70;37.20;;;;;;4988251;28;21157;-77
2021/11/16 12:36:40;;;;;;;18.43;10.27;;;6.80;43.20;;;;;;4989796;28;21177;-77
2021/11/16 12:39:22;;;;;;;20.73;11.97;;;6.70;33.20;;;;;;4989514;28;21307;-76
2021/11/16 12:41:51;;;;;;;19.17;11.67;;;6.70;23.30;;;;;;4991921;28;20449;-75
2021/11/16 12:44:30;;;;;;;17.70;10.90;;;6.70;25.40;;;;;;4990605;28;20997;-75
2021/11/16 12:47:05;;;;;;;21.47;12.77;;;6.80;25.50;;;;;;4986268;28;20435;-77
2021/11/16 12:49:38;;;;;;;21.10;12.03;;;6.70;14.30;;;;;;4990660;28;20447;-77
2021/11/16 12:52:08;;;;;;;21.30;11.27;;;6.80;11.90;;;;;;4983962;28;20448;-77
2021/11/16 12:54:36;;;;;;;20.87;12.83;;;6.70;11.00;;;;;;4990239;28;20473;-77
2021/11/16 12:57:01;;;;;;;17.93;11.47;;;6.60;10.60;;;;;;4989714;28;20502;-77
2021/11/16 12:59:33;;;;;;;20.23;11.87;;;6.70;11.00;;;;;;4993178;28;21249;-77
2021/11/16 13:02:00;;;;;;;20.70;12.53;;;6.70;9.30;;;;;;4985572;28;20246;-77
2021/11/16 13:04:56;;;;;;;17.20;10.37;;;6.70;13.70;;;;;;4967194;28;20490;-77
2021/11/16 13:07:32;;;;;;;19.93;12.40;;;6.70;9.30;;;;;;4991093;28;21143;-75
2021/11/16 13:10:01;;;;;;;20.20;11.93;;;6.60;1.00;;;;;;4993305;28;20490;-76
2021/11/16 13:12:50;;;;;;;18.73;11.63;;;6.60;1.00;;;;;;4991255;28;20435;-76
2021/11/16 13:15:27;;;;;;;17.93;11.20;;;6.70;1.00;;;;;;4990540;28;20463;-77
2021/11/16 13:17:56;;;;;;;20.97;13.23;;;6.70;1.00;;;;;;4985182;28;20443;-77